createdAt,value
2023-07-02T00:00:02.387Z,27.88
2023-07-02T00:01:02.389Z,27.88
2023-07-02T00:02:02.478Z,27.87
2023-07-02T00:03:02.648Z,27.88
2023-07-02T00:04:02.576Z,27.88
2023-07-02T00:05:02.597Z,27.85
2023-07-02T00:06:02.669Z,27.84
2023-07-02T00:07:02.775Z,27.85
2023-07-02T00:08:02.798Z,27.87
2023-07-02T00:09:02.884Z,27.85
2023-07-02T00:10:02.900Z,27.85
2023-07-02T00:11:03.027Z,27.87
2023-07-02T00:12:02.999Z,27.87
2023-07-02T00:13:03.042Z,27.88
2023-07-02T00:14:03.109Z,27.84
2023-07-02T00:15:03.198Z,27.84
2023-07-02T00:16:03.216Z,27.87
2023-07-02T00:17:03.308Z,27.85
2023-07-02T00:18:04.236Z,27.87
2023-07-02T00:19:03.381Z,27.85
2023-07-02T00:20:04.235Z,27.84
2023-07-02T00:21:03.511Z,27.85
2023-07-02T00:22:03.558Z,27.87
2023-07-02T00:23:03.664Z,27.84
2023-07-02T00:24:03.750Z,27.84
2023-07-02T00:25:03.742Z,27.85
2023-07-02T00:26:03.780Z,27.84
2023-07-02T00:27:03.833Z,27.84
2023-07-02T00:28:03.894Z,27.87
2023-07-02T00:29:03.974Z,27.85
2023-07-02T00:30:04.010Z,27.83
2023-07-02T00:31:04.133Z,27.84
2023-07-02T00:32:04.201Z,27.83
2023-07-02T00:33:04.239Z,27.85
2023-07-02T00:34:04.239Z,27.83
2023-07-02T00:35:04.329Z,27.84
2023-07-02T00:36:05.201Z,27.84
2023-07-02T00:37:04.430Z,27.84
2023-07-02T00:38:04.465Z,27.84
2023-07-02T00:39:04.524Z,27.85
2023-07-02T00:40:04.595Z,27.84
2023-07-02T00:41:04.635Z,27.84
2023-07-02T00:42:04.693Z,27.85
2023-07-02T00:43:04.747Z,27.84
2023-07-02T00:44:04.806Z,27.84
2023-07-02T00:45:04.848Z,27.81
2023-07-02T00:46:04.980Z,27.81
2023-07-02T00:47:04.950Z,27.83
2023-07-02T00:48:05.066Z,27.83
2023-07-02T00:49:05.062Z,27.83
2023-07-02T00:50:05.122Z,27.80
2023-07-02T00:51:05.168Z,27.81
2023-07-02T00:52:05.202Z,27.84
2023-07-02T00:53:05.263Z,27.81
2023-07-02T00:54:05.312Z,27.85
2023-07-02T00:55:05.369Z,27.80
2023-07-02T00:56:06.210Z,27.81
2023-07-02T00:57:05.477Z,27.81
2023-07-02T00:58:05.535Z,27.83
2023-07-02T00:59:05.604Z,27.83
2023-07-02T01:00:05.674Z,27.81
2023-07-02T01:01:05.718Z,27.81
2023-07-02T01:02:05.826Z,27.83
2023-07-02T01:03:05.950Z,27.81
2023-07-02T01:04:06.745Z,27.81
2023-07-02T01:05:06.024Z,27.81
2023-07-02T01:06:06.008Z,27.81
2023-07-02T01:07:06.060Z,27.80
2023-07-02T01:08:06.132Z,27.83
2023-07-02T01:09:06.194Z,27.81
2023-07-02T01:10:06.252Z,27.81
2023-07-02T01:11:06.302Z,27.79
2023-07-02T01:12:06.359Z,27.81
2023-07-02T01:13:06.412Z,27.80
2023-07-02T01:14:06.507Z,27.81
2023-07-02T01:15:06.537Z,27.80
2023-07-02T01:16:06.636Z,27.81
2023-07-02T01:17:06.651Z,27.79
2023-07-02T01:18:06.796Z,27.79
2023-07-02T01:19:06.778Z,27.77
2023-07-02T01:20:06.833Z,27.80
2023-07-02T01:21:06.903Z,27.79
2023-07-02T01:22:07.030Z,27.80
2023-07-02T01:23:07.038Z,27.81
2023-07-02T01:24:07.115Z,27.81
2023-07-02T01:25:07.142Z,27.77
2023-07-02T01:26:07.212Z,27.80
2023-07-02T01:27:07.256Z,27.77
2023-07-02T01:28:07.319Z,27.79
2023-07-02T01:29:07.383Z,27.79
2023-07-02T01:30:07.527Z,27.79
2023-07-02T01:31:07.534Z,27.77
2023-07-02T01:32:07.577Z,27.80
2023-07-02T01:33:07.679Z,27.77
2023-07-02T01:34:07.689Z,27.80
2023-07-02T01:35:07.740Z,27.77
2023-07-02T01:36:07.837Z,27.79
2023-07-02T01:37:07.836Z,27.77
2023-07-02T01:38:07.919Z,27.79
2023-07-02T01:39:07.969Z,27.77
2023-07-02T01:40:08.043Z,27.80
2023-07-02T01:41:08.084Z,27.77
2023-07-02T01:42:08.159Z,27.75
2023-07-02T01:43:08.199Z,27.77
2023-07-02T01:44:08.262Z,27.77
2023-07-02T01:45:08.331Z,27.79
2023-07-02T01:46:08.416Z,27.77
2023-07-02T01:47:08.425Z,27.79
2023-07-02T01:48:08.497Z,27.79
2023-07-02T01:49:08.564Z,27.77
2023-07-02T01:50:08.640Z,27.74
2023-07-02T01:51:08.762Z,27.75
2023-07-02T01:52:08.747Z,27.77
2023-07-02T01:53:08.795Z,27.77
2023-07-02T01:54:08.883Z,27.77
2023-07-02T01:55:08.904Z,27.77
2023-07-02T01:56:08.976Z,27.75
2023-07-02T01:57:09.002Z,27.77
2023-07-02T01:58:09.067Z,27.77
2023-07-02T01:59:09.132Z,27.75
2023-07-02T02:00:09.193Z,27.75
2023-07-02T02:01:09.316Z,27.77
2023-07-02T02:02:09.311Z,27.75
2023-07-02T02:03:09.434Z,27.74
2023-07-02T02:04:09.453Z,27.75
2023-07-02T02:05:09.480Z,27.74
2023-07-02T02:06:09.537Z,27.74
2023-07-02T02:07:09.616Z,27.75
2023-07-02T02:08:09.662Z,27.75
2023-07-02T02:09:09.824Z,27.74
2023-07-02T02:10:09.775Z,27.74
2023-07-02T02:11:09.831Z,27.74
2023-07-02T02:12:09.890Z,27.75
2023-07-02T02:13:10.036Z,27.73
2023-07-02T02:14:10.030Z,27.74
2023-07-02T02:15:10.077Z,27.74
2023-07-02T02:16:10.204Z,27.74
2023-07-02T02:17:10.292Z,27.74
2023-07-02T02:18:10.257Z,27.74
2023-07-02T02:19:10.343Z,27.73
2023-07-02T02:20:10.393Z,27.74
2023-07-02T02:21:10.534Z,27.73
2023-07-02T02:22:10.503Z,27.73
2023-07-02T02:23:10.559Z,27.71
2023-07-02T02:24:10.617Z,27.74
2023-07-02T02:25:10.670Z,27.75
2023-07-02T02:26:10.722Z,27.71
2023-07-02T02:27:10.788Z,27.73
2023-07-02T02:28:10.846Z,27.73
2023-07-02T02:29:10.906Z,27.74
2023-07-02T02:30:10.978Z,27.73
2023-07-02T02:31:11.102Z,27.73
2023-07-02T02:32:11.127Z,27.74
2023-07-02T02:33:11.195Z,27.71
2023-07-02T02:34:11.208Z,27.70
2023-07-02T02:35:11.254Z,27.70
2023-07-02T02:36:11.296Z,27.70
2023-07-02T02:37:11.363Z,27.74
2023-07-02T02:38:11.421Z,27.70
2023-07-02T02:39:11.501Z,27.71
2023-07-02T02:40:11.555Z,27.73
2023-07-02T02:41:11.629Z,27.73
2023-07-02T02:42:12.272Z,27.70
2023-07-02T02:43:11.736Z,27.73
2023-07-02T02:44:11.781Z,27.73
2023-07-02T02:45:11.842Z,27.70
2023-07-02T02:46:11.930Z,27.70
2023-07-02T02:47:11.910Z,27.74
2023-07-02T02:48:11.958Z,27.71
2023-07-02T02:49:12.021Z,27.70
2023-07-02T02:50:12.071Z,27.71
2023-07-02T02:51:12.118Z,27.70
2023-07-02T02:52:12.769Z,27.70
2023-07-02T02:53:12.217Z,27.73
2023-07-02T02:54:12.274Z,27.70
2023-07-02T02:55:12.324Z,27.70
2023-07-02T02:56:12.389Z,27.68
2023-07-02T02:57:12.433Z,27.70
2023-07-02T02:58:12.489Z,27.70
2023-07-02T02:59:12.646Z,27.68
2023-07-02T03:00:12.600Z,27.67
2023-07-02T03:01:12.729Z,27.68
2023-07-02T03:02:12.739Z,27.68
2023-07-02T03:03:12.901Z,27.70
2023-07-02T03:04:12.898Z,27.68
2023-07-02T03:05:12.926Z,27.68
2023-07-02T03:06:12.972Z,27.70
2023-07-02T03:07:13.027Z,27.68
2023-07-02T03:08:13.090Z,27.67
2023-07-02T03:09:13.146Z,27.70
2023-07-02T03:10:13.211Z,27.68
2023-07-02T03:11:13.251Z,27.71
2023-07-02T03:12:13.340Z,27.68
2023-07-02T03:13:13.395Z,27.67
2023-07-02T03:14:13.417Z,27.67
2023-07-02T03:15:13.487Z,27.68
2023-07-02T03:16:13.536Z,27.66
2023-07-02T03:17:13.578Z,27.68
2023-07-02T03:18:13.657Z,27.66
2023-07-02T03:19:13.619Z,27.67
2023-07-02T03:20:14.281Z,27.68
2023-07-02T03:21:13.710Z,27.67
2023-07-02T03:22:13.737Z,27.67
2023-07-02T03:23:13.780Z,27.68
2023-07-02T03:24:13.824Z,27.70
2023-07-02T03:25:13.885Z,27.67
2023-07-02T03:26:13.906Z,27.64
2023-07-02T03:27:13.976Z,27.67
2023-07-02T03:28:13.949Z,27.67
2023-07-02T03:29:14.072Z,27.66
2023-07-02T03:30:14.114Z,27.67
2023-07-02T03:31:14.175Z,27.66
2023-07-02T03:32:14.098Z,27.68
2023-07-02T03:33:14.125Z,27.66
2023-07-02T03:34:14.151Z,27.67
2023-07-02T03:35:14.784Z,27.66
2023-07-02T03:36:14.245Z,27.66
2023-07-02T03:37:14.280Z,27.66
2023-07-02T03:38:14.797Z,27.68
2023-07-02T03:39:14.377Z,27.66
2023-07-02T03:40:14.399Z,27.63
2023-07-02T03:41:14.446Z,27.66
2023-07-02T03:42:14.469Z,27.66
2023-07-02T03:43:14.516Z,27.64
2023-07-02T03:44:14.540Z,27.64
2023-07-02T03:45:14.589Z,27.66
2023-07-02T03:46:14.617Z,27.64
2023-07-02T03:47:14.662Z,27.64
2023-07-02T03:48:15.299Z,27.67
2023-07-02T03:49:14.626Z,27.64
2023-07-02T03:50:14.633Z,27.64
2023-07-02T03:51:14.634Z,27.64
2023-07-02T03:52:14.646Z,27.63
2023-07-02T03:53:14.666Z,27.63
2023-07-02T03:54:14.805Z,27.60
2023-07-02T03:55:14.759Z,27.63
2023-07-02T03:56:14.817Z,27.63
2023-07-02T03:57:14.829Z,27.64
2023-07-02T03:58:14.853Z,27.64
2023-07-02T03:59:14.873Z,27.64
2023-07-02T04:00:14.929Z,27.63
2023-07-02T04:01:17.025Z,27.64
2023-07-02T04:02:14.966Z,27.63
2023-07-02T04:03:15.071Z,27.63
2023-07-02T04:04:15.073Z,27.66
2023-07-02T04:05:15.406Z,27.63
2023-07-02T04:06:15.032Z,27.61
2023-07-02T04:07:15.066Z,27.64
2023-07-02T04:08:15.094Z,27.61
2023-07-02T04:09:15.136Z,27.63
2023-07-02T04:10:15.151Z,27.61
2023-07-02T04:11:15.217Z,27.63
2023-07-02T04:12:15.215Z,27.63
2023-07-02T04:13:15.806Z,27.63
2023-07-02T04:14:15.284Z,27.61
2023-07-02T04:15:15.406Z,27.64
2023-07-02T04:16:15.371Z,27.60
2023-07-02T04:17:15.380Z,27.63
2023-07-02T04:18:15.414Z,27.63
2023-07-02T04:19:15.441Z,27.61
2023-07-02T04:20:15.435Z,27.63
2023-07-02T04:21:15.430Z,27.63
2023-07-02T04:22:15.439Z,27.61
2023-07-02T04:23:15.448Z,27.63
2023-07-02T04:24:15.455Z,27.61
2023-07-02T04:25:25.670Z,27.61
2023-07-02T04:26:39.900Z,27.60
2023-07-02T04:27:49.316Z,27.60
2023-07-02T04:28:16.445Z,27.63
2023-07-02T04:29:15.435Z,27.63
2023-07-02T04:30:15.470Z,27.63
2023-07-02T04:31:15.446Z,27.61
2023-07-02T04:32:15.431Z,27.61
2023-07-02T04:33:16.448Z,27.60
2023-07-02T04:34:15.442Z,27.61
2023-07-02T04:35:15.415Z,27.61
2023-07-02T04:36:15.402Z,27.60
2023-07-02T04:37:15.383Z,27.61
2023-07-02T04:38:15.444Z,27.60
2023-07-02T04:39:15.387Z,27.60
2023-07-02T04:40:15.442Z,27.63
2023-07-02T04:41:15.373Z,27.61
2023-07-02T04:42:15.360Z,27.60
2023-07-02T04:43:15.363Z,27.61
2023-07-02T04:44:15.350Z,27.61
2023-07-02T04:45:17.542Z,27.60
2023-07-02T04:46:15.458Z,27.61
2023-07-02T04:47:15.332Z,27.60
2023-07-02T04:48:15.333Z,27.63
2023-07-02T04:49:15.397Z,27.60
2023-07-02T04:50:15.325Z,27.61
2023-07-02T04:51:15.314Z,27.60
2023-07-02T04:52:15.307Z,27.57
2023-07-02T04:53:15.320Z,27.60
2023-07-02T04:54:15.307Z,27.60
2023-07-02T04:55:15.310Z,27.61
2023-07-02T04:56:15.287Z,27.60
2023-07-02T04:57:15.278Z,27.60
2023-07-02T04:58:15.278Z,27.61
2023-07-02T04:59:15.281Z,27.58
2023-07-02T05:00:15.355Z,27.58
2023-07-02T05:01:15.317Z,27.60
2023-07-02T05:02:15.254Z,27.57
2023-07-02T05:03:15.314Z,27.60
2023-07-02T05:04:15.281Z,27.60
2023-07-02T05:05:15.283Z,27.58
2023-07-02T05:06:15.239Z,27.58
2023-07-02T05:07:15.298Z,27.61
2023-07-02T05:08:15.213Z,27.58
2023-07-02T05:09:15.196Z,27.58
2023-07-02T05:10:15.190Z,27.57
2023-07-02T05:11:15.179Z,27.58
2023-07-02T05:12:15.157Z,27.58
2023-07-02T05:13:15.189Z,27.60
2023-07-02T05:14:15.140Z,27.58
2023-07-02T05:15:15.139Z,27.57
2023-07-02T05:16:15.172Z,27.58
2023-07-02T05:17:15.128Z,27.58
2023-07-02T05:18:15.111Z,27.60
2023-07-02T05:19:15.113Z,27.58
2023-07-02T05:20:15.120Z,27.58
2023-07-02T05:21:15.084Z,27.58
2023-07-02T05:22:15.492Z,27.57
2023-07-02T05:23:15.070Z,27.60
2023-07-02T05:24:15.092Z,27.58
2023-07-02T05:25:15.051Z,27.56
2023-07-02T05:26:15.041Z,27.57
2023-07-02T05:27:15.017Z,27.58
2023-07-02T05:28:15.006Z,27.58
2023-07-02T05:29:14.993Z,27.56
2023-07-02T05:30:14.989Z,27.57
2023-07-02T05:31:15.030Z,27.57
2023-07-02T05:32:14.991Z,27.57
2023-07-02T05:33:14.961Z,27.57
2023-07-02T05:34:14.970Z,27.57
2023-07-02T05:35:14.959Z,27.56
2023-07-02T05:36:14.954Z,27.56
2023-07-02T05:37:14.965Z,27.57
2023-07-02T05:38:15.849Z,27.58
2023-07-02T05:39:14.932Z,27.58
2023-07-02T05:40:16.289Z,27.56
2023-07-02T05:41:14.905Z,27.57
2023-07-02T05:42:14.887Z,27.57
2023-07-02T05:43:14.880Z,27.58
2023-07-02T05:44:14.893Z,27.57
2023-07-02T05:45:14.947Z,27.56
2023-07-02T05:46:14.878Z,27.53
2023-07-02T05:47:14.901Z,27.57
2023-07-02T05:48:14.845Z,27.56
2023-07-02T05:49:14.848Z,27.57
2023-07-02T05:50:14.827Z,27.57
2023-07-02T05:51:14.815Z,27.57
2023-07-02T05:52:14.797Z,27.57
2023-07-02T05:53:14.800Z,27.57
2023-07-02T05:54:14.791Z,27.56
2023-07-02T05:55:14.856Z,27.57
2023-07-02T05:56:14.785Z,27.57
2023-07-02T05:57:14.783Z,27.54
2023-07-02T05:58:14.773Z,27.56
2023-07-02T05:59:14.776Z,27.56
2023-07-02T06:00:14.794Z,27.54
2023-07-02T06:01:14.762Z,27.57
2023-07-02T06:02:14.766Z,27.56
2023-07-02T06:03:14.858Z,27.56
2023-07-02T06:04:14.834Z,27.56
2023-07-02T06:05:14.895Z,27.56
2023-07-02T06:06:14.737Z,27.57
2023-07-02T06:07:14.734Z,27.56
2023-07-02T06:08:14.800Z,27.56
2023-07-02T06:09:14.732Z,27.53
2023-07-02T06:10:14.719Z,27.56
2023-07-02T06:11:14.710Z,27.56
2023-07-02T06:12:14.701Z,27.54
2023-07-02T06:13:14.689Z,27.56
2023-07-02T06:14:14.683Z,27.57
2023-07-02T06:15:14.672Z,27.56
2023-07-02T06:16:14.696Z,27.54
2023-07-02T06:17:14.650Z,27.56
2023-07-02T06:18:14.715Z,27.56
2023-07-02T06:19:14.635Z,27.58
2023-07-02T06:20:14.620Z,27.54
2023-07-02T06:21:14.876Z,27.54
2023-07-02T06:22:14.614Z,27.57
2023-07-02T06:23:14.610Z,27.57
2023-07-02T06:24:14.600Z,27.54
2023-07-02T06:25:14.610Z,27.57
2023-07-02T06:26:14.677Z,27.56
2023-07-02T06:27:14.562Z,27.56
2023-07-02T06:28:14.632Z,27.56
2023-07-02T06:29:14.551Z,27.54
2023-07-02T06:30:14.560Z,27.54
2023-07-02T06:31:14.604Z,27.56
2023-07-02T06:32:14.540Z,27.56
2023-07-02T06:33:14.545Z,27.57
2023-07-02T06:34:14.528Z,27.54
2023-07-02T06:35:14.519Z,27.56
2023-07-02T06:36:16.882Z,27.53
2023-07-02T06:37:14.498Z,27.53
2023-07-02T06:38:14.487Z,27.54
2023-07-02T06:39:14.526Z,27.53
2023-07-02T06:40:14.472Z,27.56
2023-07-02T06:41:14.502Z,27.57
2023-07-02T06:42:14.467Z,27.56
2023-07-02T06:43:14.438Z,27.56
2023-07-02T06:44:14.433Z,27.54
2023-07-02T06:45:14.436Z,27.57
2023-07-02T06:46:14.490Z,27.56
2023-07-02T06:47:14.406Z,27.54
2023-07-02T06:48:14.388Z,27.54
2023-07-02T06:49:14.395Z,27.56
2023-07-02T06:50:14.384Z,27.54
2023-07-02T06:51:14.376Z,27.56
2023-07-02T06:52:14.365Z,27.54
2023-07-02T06:53:14.345Z,27.56
2023-07-02T06:54:14.350Z,27.56
2023-07-02T06:55:14.356Z,27.56
2023-07-02T06:56:14.314Z,27.57
2023-07-02T06:57:14.315Z,27.54
2023-07-02T06:58:14.312Z,27.56
2023-07-02T06:59:14.302Z,27.56
2023-07-02T07:00:14.308Z,27.56
2023-07-02T07:01:14.276Z,27.56
2023-07-02T07:02:14.274Z,27.54
2023-07-02T07:03:14.251Z,27.53
2023-07-02T07:04:14.410Z,27.54
2023-07-02T07:05:14.245Z,27.54
2023-07-02T07:06:14.242Z,27.53
2023-07-02T07:07:14.228Z,27.56
2023-07-02T07:08:14.224Z,27.54
2023-07-02T07:09:14.929Z,27.56
2023-07-02T07:10:14.207Z,27.56
2023-07-02T07:11:14.199Z,27.54
2023-07-02T07:12:14.186Z,27.56
2023-07-02T07:13:14.184Z,27.56
2023-07-02T07:14:14.240Z,27.53
2023-07-02T07:15:14.393Z,27.54
2023-07-02T07:16:14.167Z,27.52
2023-07-02T07:17:14.405Z,27.54
2023-07-02T07:18:14.206Z,27.53
2023-07-02T07:19:14.154Z,27.56
2023-07-02T07:20:14.143Z,27.54
2023-07-02T07:21:14.138Z,27.54
2023-07-02T07:22:14.124Z,27.56
2023-07-02T07:23:14.124Z,27.54
2023-07-02T07:24:14.188Z,27.52
2023-07-02T07:25:14.111Z,27.54
2023-07-02T07:26:14.076Z,27.52
2023-07-02T07:27:14.078Z,27.53
2023-07-02T07:28:14.071Z,27.54
2023-07-02T07:29:14.057Z,27.53
2023-07-02T07:30:14.058Z,27.53
2023-07-02T07:31:14.091Z,27.56
2023-07-02T07:32:14.069Z,27.53
2023-07-02T07:33:14.081Z,27.54
2023-07-02T07:34:14.017Z,27.54
2023-07-02T07:35:14.012Z,27.53
2023-07-02T07:36:14.005Z,27.50
2023-07-02T07:37:13.995Z,27.53
2023-07-02T07:38:14.000Z,27.54
2023-07-02T07:39:13.995Z,27.54
2023-07-02T07:40:14.056Z,27.53
2023-07-02T07:41:13.968Z,27.54
2023-07-02T07:42:13.961Z,27.54
2023-07-02T07:43:13.989Z,27.53
2023-07-02T07:44:13.962Z,27.52
2023-07-02T07:45:13.958Z,27.54
2023-07-02T07:46:13.995Z,27.53
2023-07-02T07:47:13.974Z,27.53
2023-07-02T07:48:13.935Z,27.50
2023-07-02T07:49:13.913Z,27.53
2023-07-02T07:50:13.925Z,27.52
2023-07-02T07:51:13.914Z,27.54
2023-07-02T07:52:13.904Z,27.52
2023-07-02T07:53:13.898Z,27.53
2023-07-02T07:54:13.894Z,27.50
2023-07-02T07:55:13.943Z,27.53
2023-07-02T07:56:13.880Z,27.52
2023-07-02T07:57:13.882Z,27.54
2023-07-02T07:58:13.879Z,27.52
2023-07-02T07:59:13.881Z,27.52
2023-07-02T08:00:13.902Z,27.53
2023-07-02T08:01:13.873Z,27.53
2023-07-02T08:02:14.049Z,27.52
2023-07-02T08:03:13.898Z,27.54
2023-07-02T08:04:14.460Z,27.53
2023-07-02T08:05:13.930Z,27.54
2023-07-02T08:06:13.855Z,27.54
2023-07-02T08:07:13.849Z,27.50
2023-07-02T08:08:13.846Z,27.53
2023-07-02T08:09:13.854Z,27.54
2023-07-02T08:10:13.853Z,27.50
2023-07-02T08:11:13.831Z,27.53
2023-07-02T08:12:13.888Z,27.52
2023-07-02T08:13:13.815Z,27.54
2023-07-02T08:14:13.813Z,27.54
2023-07-02T08:15:13.812Z,27.54
2023-07-02T08:16:13.836Z,27.54
2023-07-02T08:17:13.796Z,27.56
2023-07-02T08:18:13.793Z,27.57
2023-07-02T08:19:13.783Z,27.60
2023-07-02T08:20:13.781Z,27.60
2023-07-02T08:21:13.761Z,27.54
2023-07-02T08:22:13.764Z,27.54
2023-07-02T08:23:13.755Z,27.56
2023-07-02T08:24:13.761Z,27.56
2023-07-02T08:25:13.752Z,27.56
2023-07-02T08:26:13.821Z,27.54
2023-07-02T08:27:13.737Z,27.54
2023-07-02T08:28:13.751Z,27.54
2023-07-02T08:29:13.830Z,27.54
2023-07-02T08:30:13.730Z,27.54
2023-07-02T08:31:13.759Z,27.54
2023-07-02T08:32:14.425Z,27.54
2023-07-02T08:33:13.703Z,27.54
2023-07-02T08:34:13.700Z,27.56
2023-07-02T08:35:13.695Z,27.54
2023-07-02T08:36:13.691Z,27.52
2023-07-02T08:37:13.688Z,27.57
2023-07-02T08:38:13.675Z,27.56
2023-07-02T08:39:13.670Z,27.54
2023-07-02T08:40:13.666Z,27.57
2023-07-02T08:41:13.659Z,27.54
2023-07-02T08:42:13.645Z,27.56
2023-07-02T08:43:13.642Z,27.56
2023-07-02T08:44:13.733Z,27.57
2023-07-02T08:45:13.641Z,27.57
2023-07-02T08:46:13.642Z,27.57
2023-07-02T08:47:13.711Z,27.57
2023-07-02T08:48:13.661Z,27.58
2023-07-02T08:49:13.637Z,27.58
2023-07-02T08:50:13.624Z,27.57
2023-07-02T08:51:13.681Z,27.57
2023-07-02T08:52:13.612Z,27.57
2023-07-02T08:53:13.603Z,27.57
2023-07-02T08:54:13.644Z,27.58
2023-07-02T08:55:13.697Z,27.57
2023-07-02T08:56:13.735Z,27.57
2023-07-02T08:57:13.780Z,27.57
2023-07-02T08:58:13.826Z,27.57
2023-07-02T08:59:13.948Z,27.58
2023-07-02T09:00:13.975Z,27.60
2023-07-02T09:01:14.098Z,27.57
2023-07-02T09:02:14.089Z,27.58
2023-07-02T09:03:14.532Z,27.57
2023-07-02T09:04:14.295Z,27.56
2023-07-02T09:05:14.323Z,27.56
2023-07-02T09:06:14.326Z,27.57
2023-07-02T09:07:14.378Z,27.58
2023-07-02T09:08:14.425Z,27.54
2023-07-02T09:09:14.465Z,27.54
2023-07-02T09:10:14.549Z,27.56
2023-07-02T09:11:14.596Z,27.54
2023-07-02T09:12:14.635Z,27.54
2023-07-02T09:13:14.685Z,27.56
2023-07-02T09:14:14.727Z,27.54
2023-07-02T09:15:14.767Z,27.54
2023-07-02T09:16:14.882Z,27.54
2023-07-02T09:17:15.023Z,27.56
2023-07-02T09:18:14.881Z,27.54
2023-07-02T09:19:14.925Z,27.54
2023-07-02T09:20:14.980Z,27.52
2023-07-02T09:21:16.037Z,27.56
2023-07-02T09:22:15.034Z,27.52
2023-07-02T09:23:15.085Z,27.53
2023-07-02T09:24:15.117Z,27.56
2023-07-02T09:25:15.163Z,27.54
2023-07-02T09:26:15.197Z,27.54
2023-07-02T09:27:15.233Z,27.53
2023-07-02T09:28:15.279Z,27.54
2023-07-02T09:29:15.346Z,27.54
2023-07-02T09:30:15.396Z,27.54
2023-07-02T09:31:15.484Z,27.54
2023-07-02T09:32:15.493Z,27.53
2023-07-02T09:33:15.650Z,27.53
2023-07-02T09:34:15.708Z,27.56
2023-07-02T09:35:15.770Z,27.53
2023-07-02T09:36:15.716Z,27.54
2023-07-02T09:37:15.786Z,27.56
2023-07-02T09:38:15.846Z,27.56
2023-07-02T09:39:15.949Z,27.54
2023-07-02T09:40:15.973Z,27.54
2023-07-02T09:41:16.044Z,27.56
2023-07-02T09:42:16.104Z,27.53
2023-07-02T09:43:16.168Z,27.57
2023-07-02T09:44:16.281Z,27.56
2023-07-02T09:45:16.332Z,27.56
2023-07-02T09:46:16.420Z,27.56
2023-07-02T09:47:16.434Z,27.56
2023-07-02T09:48:16.511Z,27.56
2023-07-02T09:49:16.547Z,27.54
2023-07-02T09:50:16.608Z,27.57
2023-07-02T09:51:16.707Z,27.57
2023-07-02T09:52:17.661Z,27.56
2023-07-02T09:53:16.655Z,27.56
2023-07-02T09:54:16.637Z,27.56
2023-07-02T09:55:16.695Z,27.56
2023-07-02T09:56:16.615Z,27.56
2023-07-02T09:57:16.622Z,27.56
2023-07-02T09:58:16.606Z,27.56
2023-07-02T09:59:16.629Z,27.54
2023-07-02T10:00:17.086Z,27.57
2023-07-02T10:01:16.722Z,27.54
2023-07-02T10:02:16.754Z,27.56
2023-07-02T10:03:16.822Z,27.57
2023-07-02T10:04:16.936Z,27.57
2023-07-02T10:05:17.089Z,27.57
2023-07-02T10:06:16.988Z,27.56
2023-07-02T10:07:17.051Z,27.54
2023-07-02T10:08:17.118Z,27.57
2023-07-02T10:09:17.187Z,27.56
2023-07-02T10:10:19.319Z,27.56
2023-07-02T10:11:17.262Z,27.56
2023-07-02T10:12:17.247Z,27.56
2023-07-02T10:13:17.236Z,27.56
2023-07-02T10:14:17.251Z,27.57
2023-07-02T10:15:17.238Z,27.57
2023-07-02T10:16:17.262Z,27.56
2023-07-02T10:17:17.283Z,27.54
2023-07-02T10:18:17.243Z,27.53
2023-07-02T10:19:17.195Z,27.54
2023-07-02T10:20:17.412Z,27.56
2023-07-02T10:21:18.036Z,27.54
2023-07-02T10:22:17.181Z,27.54
2023-07-02T10:23:17.168Z,27.54
2023-07-02T10:24:17.194Z,27.54
2023-07-02T10:25:17.144Z,27.54
2023-07-02T10:26:17.166Z,27.56
2023-07-02T10:27:17.144Z,27.56
2023-07-02T10:28:17.134Z,27.52
2023-07-02T10:29:17.117Z,27.53
2023-07-02T10:30:17.111Z,27.53
2023-07-02T10:31:17.989Z,27.53
2023-07-02T10:32:17.081Z,27.53
2023-07-02T10:33:17.099Z,27.53
2023-07-02T10:34:17.063Z,27.54
2023-07-02T10:35:17.094Z,27.53
2023-07-02T10:36:17.054Z,27.53
2023-07-02T10:37:17.045Z,27.52
2023-07-02T10:38:17.137Z,27.52
2023-07-02T10:39:17.036Z,27.53
2023-07-02T10:40:17.011Z,27.54
2023-07-02T10:41:17.018Z,27.53
2023-07-02T10:42:17.010Z,27.53
2023-07-02T10:43:16.993Z,27.52
2023-07-02T10:44:16.990Z,27.52
2023-07-02T10:45:17.005Z,27.52
2023-07-02T10:46:17.005Z,27.52
2023-07-02T10:47:17.063Z,27.56
2023-07-02T10:48:17.110Z,27.54
2023-07-02T10:49:17.156Z,27.56
2023-07-02T10:50:17.489Z,27.54
2023-07-02T10:51:17.283Z,27.53
2023-07-02T10:52:17.349Z,27.52
2023-07-02T10:53:17.414Z,27.53
2023-07-02T10:54:17.453Z,27.53
2023-07-02T10:55:17.528Z,27.52
2023-07-02T10:56:18.520Z,27.54
2023-07-02T10:57:17.636Z,27.56
2023-07-02T10:58:17.704Z,27.53
2023-07-02T10:59:17.771Z,27.56
2023-07-02T11:00:17.831Z,27.53
2023-07-02T11:01:17.918Z,27.56
2023-07-02T11:02:18.009Z,27.54
2023-07-02T11:03:18.212Z,27.56
2023-07-02T11:04:18.091Z,27.54
2023-07-02T11:05:18.146Z,27.58
2023-07-02T11:06:18.187Z,27.56
2023-07-02T11:07:18.249Z,27.54
2023-07-02T11:08:18.342Z,27.54
2023-07-02T11:09:18.363Z,27.56
2023-07-02T11:10:18.419Z,27.53
2023-07-02T11:11:18.456Z,27.53
2023-07-02T11:12:18.508Z,27.53
2023-07-02T11:13:18.563Z,27.50
2023-07-02T11:14:18.618Z,27.54
2023-07-02T11:15:18.692Z,27.53
2023-07-02T11:16:18.725Z,27.53
2023-07-02T11:17:18.908Z,27.54
2023-07-02T11:18:19.142Z,27.56
2023-07-02T11:19:18.903Z,27.56
2023-07-02T11:20:18.949Z,27.56
2023-07-02T11:21:19.506Z,27.58
2023-07-02T11:22:19.035Z,27.56
2023-07-02T11:23:19.091Z,27.56
2023-07-02T11:24:19.142Z,27.54
2023-07-02T11:25:19.197Z,27.54
2023-07-02T11:26:19.292Z,27.58
2023-07-02T11:27:19.345Z,27.54
2023-07-02T11:28:19.341Z,27.56
2023-07-02T11:29:19.420Z,27.56
2023-07-02T11:30:19.430Z,27.56
2023-07-02T11:31:19.497Z,27.57
2023-07-02T11:32:19.622Z,27.56
2023-07-02T11:33:19.559Z,27.54
2023-07-02T11:34:20.431Z,27.58
2023-07-02T11:35:19.671Z,27.56
2023-07-02T11:36:19.585Z,27.57
2023-07-02T11:37:19.574Z,27.57
2023-07-02T11:38:19.557Z,27.57
2023-07-02T11:39:19.548Z,27.54
2023-07-02T11:40:19.549Z,27.56
2023-07-02T11:41:21.682Z,27.57
2023-07-02T11:42:19.520Z,27.57
2023-07-02T11:43:19.503Z,27.56
2023-07-02T11:44:19.510Z,27.56
2023-07-02T11:45:19.473Z,27.57
2023-07-02T11:46:19.473Z,27.57
2023-07-02T11:47:19.550Z,27.58
2023-07-02T11:48:19.460Z,27.56
2023-07-02T11:49:19.450Z,27.57
2023-07-02T11:50:26.776Z,27.58
2023-07-02T11:51:20.493Z,27.58
2023-07-02T11:52:19.396Z,27.57
2023-07-02T11:53:19.401Z,27.57
2023-07-02T11:54:19.460Z,27.56
2023-07-02T11:55:19.351Z,27.58
2023-07-02T11:56:19.341Z,27.57
2023-07-02T11:57:20.021Z,27.58
2023-07-02T11:58:19.324Z,27.58
2023-07-02T11:59:19.365Z,27.60
2023-07-02T12:00:19.453Z,27.58
2023-07-02T12:01:19.484Z,27.63
2023-07-02T12:02:19.544Z,27.58
2023-07-02T12:03:19.639Z,27.60
2023-07-02T12:04:19.648Z,27.61
2023-07-02T12:05:19.656Z,27.64
2023-07-02T12:06:19.710Z,27.61
2023-07-02T12:07:19.738Z,27.63
2023-07-02T12:08:19.785Z,27.63
2023-07-02T12:09:19.832Z,27.64
2023-07-02T12:10:19.893Z,27.64
2023-07-02T12:11:19.966Z,27.67
2023-07-02T12:12:20.067Z,27.66
2023-07-02T12:13:20.040Z,27.67
2023-07-02T12:14:20.085Z,27.70
2023-07-02T12:15:20.129Z,27.67
2023-07-02T12:16:20.311Z,27.68
2023-07-02T12:17:20.318Z,27.67
2023-07-02T12:18:20.294Z,27.70
2023-07-02T12:19:20.344Z,27.67
2023-07-02T12:20:20.536Z,27.68
2023-07-02T12:21:20.460Z,27.70
2023-07-02T12:22:21.029Z,27.70
2023-07-02T12:23:20.563Z,27.68
2023-07-02T12:24:20.643Z,27.67
2023-07-02T12:25:20.768Z,27.68
2023-07-02T12:26:20.725Z,27.68
2023-07-02T12:27:20.801Z,27.70
2023-07-02T12:28:20.876Z,27.66
2023-07-02T12:29:20.878Z,27.68
2023-07-02T12:30:20.917Z,27.68
2023-07-02T12:31:21.008Z,27.70
2023-07-02T12:32:21.119Z,27.71
2023-07-02T12:33:21.081Z,27.68
2023-07-02T12:34:21.186Z,27.73
2023-07-02T12:35:21.177Z,27.74
2023-07-02T12:36:21.211Z,27.71
2023-07-02T12:37:21.267Z,27.73
2023-07-02T12:38:21.325Z,27.71
2023-07-02T12:39:23.831Z,27.71
2023-07-02T12:40:21.557Z,27.71
2023-07-02T12:41:21.609Z,27.68
2023-07-02T12:42:21.655Z,27.68
2023-07-02T12:43:21.712Z,27.68
2023-07-02T12:44:21.753Z,27.67
2023-07-02T12:45:22.252Z,27.67
2023-07-02T12:46:21.972Z,27.64
2023-07-02T12:47:22.018Z,27.68
2023-07-02T12:48:21.975Z,27.67
2023-07-02T12:49:22.001Z,27.67
2023-07-02T12:50:22.064Z,27.68
2023-07-02T12:51:22.100Z,27.68
2023-07-02T12:52:22.269Z,27.64